sensor_id;sensor_type;location;lat;lon;timestamp;P1;durP1;ratioP1;P2;durP2;ratioP2
43150;SDS011;28755;51.478;5.702;2023-03-23T00:01:46;7.53;;;3.00;;
43150;SDS011;28755;51.478;5.702;2023-03-23T00:04:14;6.22;;;2.75;;
43150;SDS011;28755;51.478;5.702;2023-03-23T00:06:40;7.07;;;2.70;;
43150;SDS011;28755;51.478;5.702;2023-03-23T00:09:07;5.65;;;2.58;;
43150;SDS011;28755;51.478;5.702;2023-03-23T00:11:34;6.13;;;3.00;;
43150;SDS011;28755;51.478;5.702;2023-03-23T00:14:00;4.45;;;2.65;;
43150;SDS011;28755;51.478;5.702;2023-03-23T00:16:27;4.57;;;2.85;;
43150;SDS011;28755;51.478;5.702;2023-03-23T00:21:25;6.15;;;2.85;;
43150;SDS011;28755;51.478;5.702;2023-03-23T00:23:59;5.10;;;3.00;;
43150;SDS011;28755;51.478;5.702;2023-03-23T00:26:36;5.75;;;3.10;;
43150;SDS011;28755;51.478;5.702;2023-03-23T00:29:05;5.50;;;2.90;;
43150;SDS011;28755;51.478;5.702;2023-03-23T00:31:32;4.65;;;2.90;;
43150;SDS011;28755;51.478;5.702;2023-03-23T00:34:00;5.95;;;3.10;;
43150;SDS011;28755;51.478;5.702;2023-03-23T00:36:26;5.13;;;3.00;;
43150;SDS011;28755;51.478;5.702;2023-03-23T00:38:53;5.68;;;2.97;;
43150;SDS011;28755;51.478;5.702;2023-03-23T00:41:22;5.07;;;2.90;;
43150;SDS011;28755;51.478;5.702;2023-03-23T00:43:49;6.97;;;3.00;;
43150;SDS011;28755;51.478;5.702;2023-03-23T00:46:16;7.35;;;3.08;;
43150;SDS011;28755;51.478;5.702;2023-03-23T00:48:41;5.35;;;2.80;;
43150;SDS011;28755;51.478;5.702;2023-03-23T00:51:09;5.68;;;3.15;;
43150;SDS011;28755;51.478;5.702;2023-03-23T00:53:36;5.55;;;2.95;;
43150;SDS011;28755;51.478;5.702;2023-03-23T00:56:02;6.35;;;3.20;;
43150;SDS011;28755;51.478;5.702;2023-03-23T00:58:28;6.45;;;3.40;;
43150;SDS011;28755;51.478;5.702;2023-03-23T01:00:53;4.78;;;2.83;;
43150;SDS011;28755;51.478;5.702;2023-03-23T01:03:19;5.10;;;2.78;;
43150;SDS011;28755;51.478;5.702;2023-03-23T01:05:45;6.50;;;2.85;;
43150;SDS011;28755;51.478;5.702;2023-03-23T01:08:16;4.90;;;2.72;;
43150;SDS011;28755;51.478;5.702;2023-03-23T01:10:43;5.90;;;2.75;;
43150;SDS011;28755;51.478;5.702;2023-03-23T01:13:10;4.45;;;2.78;;
43150;SDS011;28755;51.478;5.702;2023-03-23T01:15:36;6.97;;;3.10;;
43150;SDS011;28755;51.478;5.702;2023-03-23T01:18:02;5.97;;;3.28;;
43150;SDS011;28755;51.478;5.702;2023-03-23T01:20:28;3.15;;;2.35;;
43150;SDS011;28755;51.478;5.702;2023-03-23T01:22:56;6.45;;;3.03;;
43150;SDS011;28755;51.478;5.702;2023-03-23T01:25:25;4.95;;;3.13;;
43150;SDS011;28755;51.478;5.702;2023-03-23T01:27:53;6.75;;;3.50;;
43150;SDS011;28755;51.478;5.702;2023-03-23T01:30:18;5.53;;;3.08;;
43150;SDS011;28755;51.478;5.702;2023-03-23T01:32:44;6.93;;;2.80;;
43150;SDS011;28755;51.478;5.702;2023-03-23T01:35:11;4.55;;;2.95;;
43150;SDS011;28755;51.478;5.702;2023-03-23T01:37:38;5.88;;;2.72;;
43150;SDS011;28755;51.478;5.702;2023-03-23T01:40:03;7.75;;;3.13;;
43150;SDS011;28755;51.478;5.702;2023-03-23T01:42:31;4.50;;;2.70;;
43150;SDS011;28755;51.478;5.702;2023-03-23T01:45:21;6.65;;;3.10;;
43150;SDS011;28755;51.478;5.702;2023-03-23T01:48:09;5.35;;;2.80;;
43150;SDS011;28755;51.478;5.702;2023-03-23T01:51:28;4.85;;;2.63;;
43150;SDS011;28755;51.478;5.702;2023-03-23T01:53:36;4.85;;;2.88;;
43150;SDS011;28755;51.478;5.702;2023-03-23T01:56:07;6.53;;;2.58;;
43150;SDS011;28755;51.478;5.702;2023-03-23T01:58:36;5.88;;;2.78;;
43150;SDS011;28755;51.478;5.702;2023-03-23T02:01:06;5.80;;;3.05;;
43150;SDS011;28755;51.478;5.702;2023-03-23T02:03:36;6.00;;;3.08;;
43150;SDS011;28755;51.478;5.702;2023-03-23T02:06:04;5.63;;;2.83;;
43150;SDS011;28755;51.478;5.702;2023-03-23T02:08:30;5.68;;;3.10;;
43150;SDS011;28755;51.478;5.702;2023-03-23T02:10:57;6.13;;;3.03;;
43150;SDS011;28755;51.478;5.702;2023-03-23T02:13:23;6.32;;;3.10;;
43150;SDS011;28755;51.478;5.702;2023-03-23T02:18:53;6.20;;;3.03;;
43150;SDS011;28755;51.478;5.702;2023-03-23T02:32:04;6.60;;;2.92;;
43150;SDS011;28755;51.478;5.702;2023-03-23T02:34:59;5.10;;;3.17;;
43150;SDS011;28755;51.478;5.702;2023-03-23T02:37:29;6.18;;;2.97;;
43150;SDS011;28755;51.478;5.702;2023-03-23T02:40:05;5.38;;;2.95;;
43150;SDS011;28755;51.478;5.702;2023-03-23T02:42:36;5.07;;;3.00;;
43150;SDS011;28755;51.478;5.702;2023-03-23T02:45:05;7.47;;;2.95;;
43150;SDS011;28755;51.478;5.702;2023-03-23T02:47:33;7.03;;;3.22;;
43150;SDS011;28755;51.478;5.702;2023-03-23T02:50:02;5.47;;;2.90;;
43150;SDS011;28755;51.478;5.702;2023-03-23T02:52:30;5.68;;;3.22;;
43150;SDS011;28755;51.478;5.702;2023-03-23T02:54:57;5.13;;;2.90;;
43150;SDS011;28755;51.478;5.702;2023-03-23T02:57:24;6.10;;;3.60;;
43150;SDS011;28755;51.478;5.702;2023-03-23T02:59:52;5.15;;;3.20;;
43150;SDS011;28755;51.478;5.702;2023-03-23T03:02:21;9.00;;;3.53;;
43150;SDS011;28755;51.478;5.702;2023-03-23T03:05:09;5.05;;;3.40;;
43150;SDS011;28755;51.478;5.702;2023-03-23T03:19:07;6.85;;;3.47;;
43150;SDS011;28755;51.478;5.702;2023-03-23T03:21:42;6.63;;;3.92;;
43150;SDS011;28755;51.478;5.702;2023-03-23T03:24:09;7.57;;;3.70;;
43150;SDS011;28755;51.478;5.702;2023-03-23T03:26:39;4.90;;;3.30;;
43150;SDS011;28755;51.478;5.702;2023-03-23T03:29:10;5.43;;;3.40;;
43150;SDS011;28755;51.478;5.702;2023-03-23T03:31:37;6.68;;;3.55;;
43150;SDS011;28755;51.478;5.702;2023-03-23T03:34:05;8.77;;;3.95;;
43150;SDS011;28755;51.478;5.702;2023-03-23T03:36:32;7.07;;;3.30;;
43150;SDS011;28755;51.478;5.702;2023-03-23T03:39:06;5.65;;;3.40;;
43150;SDS011;28755;51.478;5.702;2023-03-23T03:41:34;5.53;;;3.75;;
43150;SDS011;28755;51.478;5.702;2023-03-23T03:44:01;5.18;;;3.28;;
43150;SDS011;28755;51.478;5.702;2023-03-23T03:46:27;5.97;;;2.92;;
43150;SDS011;28755;51.478;5.702;2023-03-23T03:48:55;6.63;;;3.25;;
43150;SDS011;28755;51.478;5.702;2023-03-23T03:51:21;7.68;;;3.22;;
43150;SDS011;28755;51.478;5.702;2023-03-23T03:53:47;7.03;;;3.22;;
43150;SDS011;28755;51.478;5.702;2023-03-23T03:56:13;5.43;;;3.30;;
43150;SDS011;28755;51.478;5.702;2023-03-23T03:58:39;5.65;;;3.10;;
43150;SDS011;28755;51.478;5.702;2023-03-23T04:01:07;6.72;;;2.88;;
43150;SDS011;28755;51.478;5.702;2023-03-23T04:03:35;5.65;;;3.20;;
43150;SDS011;28755;51.478;5.702;2023-03-23T04:06:01;6.50;;;2.70;;
43150;SDS011;28755;51.478;5.702;2023-03-23T04:08:27;7.72;;;2.63;;
43150;SDS011;28755;51.478;5.702;2023-03-23T04:10:53;4.82;;;2.58;;
43150;SDS011;28755;51.478;5.702;2023-03-23T04:13:19;8.40;;;2.80;;
43150;SDS011;28755;51.478;5.702;2023-03-23T04:15:45;7.85;;;2.88;;
43150;SDS011;28755;51.478;5.702;2023-03-23T04:18:12;5.10;;;2.45;;
43150;SDS011;28755;51.478;5.702;2023-03-23T04:20:40;5.40;;;2.50;;
43150;SDS011;28755;51.478;5.702;2023-03-23T04:23:06;9.07;;;2.50;;
43150;SDS011;28755;51.478;5.702;2023-03-23T04:25:32;8.38;;;2.85;;
43150;SDS011;28755;51.478;5.702;2023-03-23T04:27:59;5.18;;;2.28;;
43150;SDS011;28755;51.478;5.702;2023-03-23T04:30:26;5.72;;;2.15;;
43150;SDS011;28755;51.478;5.702;2023-03-23T04:32:54;6.63;;;2.25;;
43150;SDS011;28755;51.478;5.702;2023-03-23T04:35:21;5.97;;;2.33;;
43150;SDS011;28755;51.478;5.702;2023-03-23T04:37:51;8.20;;;2.42;;
43150;SDS011;28755;51.478;5.702;2023-03-23T04:40:16;7.13;;;2.58;;
43150;SDS011;28755;51.478;5.702;2023-03-23T04:42:42;11.88;;;2.30;;
43150;SDS011;28755;51.478;5.702;2023-03-23T04:45:15;8.73;;;1.83;;
43150;SDS011;28755;51.478;5.702;2023-03-23T04:47:46;8.43;;;2.03;;
43150;SDS011;28755;51.478;5.702;2023-03-23T04:50:19;7.30;;;1.92;;
43150;SDS011;28755;51.478;5.702;2023-03-23T04:52:46;8.07;;;2.25;;
43150;SDS011;28755;51.478;5.702;2023-03-23T04:55:13;5.22;;;1.90;;
43150;SDS011;28755;51.478;5.702;2023-03-23T04:57:39;7.95;;;2.17;;
43150;SDS011;28755;51.478;5.702;2023-03-23T05:00:05;10.55;;;2.85;;
43150;SDS011;28755;51.478;5.702;2023-03-23T05:02:37;7.22;;;2.40;;
43150;SDS011;28755;51.478;5.702;2023-03-23T05:05:06;7.78;;;2.20;;
43150;SDS011;28755;51.478;5.702;2023-03-23T05:07:33;6.50;;;2.13;;
43150;SDS011;28755;51.478;5.702;2023-03-23T05:09:59;8.18;;;1.95;;
43150;SDS011;28755;51.478;5.702;2023-03-23T05:12:25;6.13;;;2.20;;
43150;SDS011;28755;51.478;5.702;2023-03-23T05:14:51;4.85;;;1.85;;
43150;SDS011;28755;51.478;5.702;2023-03-23T05:17:17;5.20;;;2.05;;
43150;SDS011;28755;51.478;5.702;2023-03-23T05:19:43;7.13;;;2.33;;
43150;SDS011;28755;51.478;5.702;2023-03-23T05:22:12;6.15;;;2.17;;
43150;SDS011;28755;51.478;5.702;2023-03-23T05:24:39;7.60;;;2.53;;
43150;SDS011;28755;51.478;5.702;2023-03-23T05:27:05;8.52;;;2.60;;
43150;SDS011;28755;51.478;5.702;2023-03-23T05:29:32;6.05;;;2.20;;
43150;SDS011;28755;51.478;5.702;2023-03-23T05:32:00;8.52;;;2.50;;
43150;SDS011;28755;51.478;5.702;2023-03-23T05:34:27;9.48;;;2.92;;
43150;SDS011;28755;51.478;5.702;2023-03-23T05:36:54;9.38;;;2.53;;
43150;SDS011;28755;51.478;5.702;2023-03-23T05:39:20;6.50;;;2.88;;
43150;SDS011;28755;51.478;5.702;2023-03-23T05:41:46;6.03;;;2.63;;
43150;SDS011;28755;51.478;5.702;2023-03-23T05:44:12;6.53;;;2.70;;
43150;SDS011;28755;51.478;5.702;2023-03-23T05:46:47;9.88;;;2.67;;
43150;SDS011;28755;51.478;5.702;2023-03-23T05:52:55;9.35;;;3.00;;
43150;SDS011;28755;51.478;5.702;2023-03-23T05:55:28;8.73;;;2.85;;
43150;SDS011;28755;51.478;5.702;2023-03-23T05:57:54;9.10;;;3.03;;
43150;SDS011;28755;51.478;5.702;2023-03-23T06:00:19;9.10;;;2.92;;
43150;SDS011;28755;51.478;5.702;2023-03-23T06:02:47;8.75;;;3.15;;
43150;SDS011;28755;51.478;5.702;2023-03-23T06:05:14;9.80;;;3.15;;
43150;SDS011;28755;51.478;5.702;2023-03-23T06:07:40;11.75;;;3.17;;
43150;SDS011;28755;51.478;5.702;2023-03-23T06:10:06;7.40;;;2.58;;
43150;SDS011;28755;51.478;5.702;2023-03-23T06:12:33;11.10;;;3.10;;
43150;SDS011;28755;51.478;5.702;2023-03-23T06:15:03;8.68;;;2.67;;
43150;SDS011;28755;51.478;5.702;2023-03-23T06:17:31;10.15;;;2.60;;
43150;SDS011;28755;51.478;5.702;2023-03-23T06:19:58;8.95;;;2.67;;
43150;SDS011;28755;51.478;5.702;2023-03-23T06:22:24;8.25;;;2.47;;
43150;SDS011;28755;51.478;5.702;2023-03-23T06:24:50;12.82;;;2.95;;
43150;SDS011;28755;51.478;5.702;2023-03-23T06:27:15;10.05;;;2.60;;
43150;SDS011;28755;51.478;5.702;2023-03-23T06:29:42;12.27;;;2.75;;
43150;SDS011;28755;51.478;5.702;2023-03-23T06:32:09;7.97;;;2.40;;
43150;SDS011;28755;51.478;5.702;2023-03-23T06:34:36;9.43;;;2.78;;
43150;SDS011;28755;51.478;5.702;2023-03-23T06:37:02;9.68;;;2.47;;
43150;SDS011;28755;51.478;5.702;2023-03-23T06:39:28;8.68;;;2.40;;
43150;SDS011;28755;51.478;5.702;2023-03-23T06:41:53;9.18;;;2.55;;
43150;SDS011;28755;51.478;5.702;2023-03-23T06:44:21;7.65;;;2.50;;
43150;SDS011;28755;51.478;5.702;2023-03-23T06:46:46;10.90;;;2.72;;
43150;SDS011;28755;51.478;5.702;2023-03-23T06:49:13;11.25;;;2.78;;
43150;SDS011;28755;51.478;5.702;2023-03-23T06:51:39;8.48;;;2.10;;
43150;SDS011;28755;51.478;5.702;2023-03-23T06:54:04;8.43;;;2.22;;
43150;SDS011;28755;51.478;5.702;2023-03-23T06:56:30;9.40;;;2.53;;
43150;SDS011;28755;51.478;5.702;2023-03-23T06:58:56;7.18;;;2.25;;
43150;SDS011;28755;51.478;5.702;2023-03-23T07:01:21;8.68;;;2.22;;
43150;SDS011;28755;51.478;5.702;2023-03-23T07:03:47;7.75;;;1.92;;
43150;SDS011;28755;51.478;5.702;2023-03-23T07:06:13;8.43;;;2.38;;
43150;SDS011;28755;51.478;5.702;2023-03-23T07:08:40;5.82;;;1.70;;
43150;SDS011;28755;51.478;5.702;2023-03-23T07:11:05;9.95;;;1.95;;
43150;SDS011;28755;51.478;5.702;2023-03-23T07:13:31;7.55;;;2.35;;
43150;SDS011;28755;51.478;5.702;2023-03-23T07:15:57;6.53;;;2.03;;
43150;SDS011;28755;51.478;5.702;2023-03-23T07:18:23;10.95;;;2.17;;
43150;SDS011;28755;51.478;5.702;2023-03-23T07:20:49;5.95;;;1.90;;
43150;SDS011;28755;51.478;5.702;2023-03-23T07:23:16;6.50;;;2.05;;
43150;SDS011;28755;51.478;5.702;2023-03-23T07:25:42;4.07;;;1.80;;
43150;SDS011;28755;51.478;5.702;2023-03-23T07:28:09;7.03;;;2.05;;
43150;SDS011;28755;51.478;5.702;2023-03-23T07:30:35;7.53;;;2.08;;
43150;SDS011;28755;51.478;5.702;2023-03-23T07:33:03;6.35;;;1.95;;
43150;SDS011;28755;51.478;5.702;2023-03-23T07:35:30;7.65;;;1.88;;
43150;SDS011;28755;51.478;5.702;2023-03-23T07:37:56;7.40;;;1.67;;
43150;SDS011;28755;51.478;5.702;2023-03-23T07:40:22;7.75;;;2.10;;
43150;SDS011;28755;51.478;5.702;2023-03-23T07:42:51;8.50;;;1.80;;
43150;SDS011;28755;51.478;5.702;2023-03-23T07:45:18;6.72;;;2.40;;
43150;SDS011;28755;51.478;5.702;2023-03-23T07:47:44;7.47;;;2.13;;
43150;SDS011;28755;51.478;5.702;2023-03-23T07:50:10;5.45;;;1.70;;
43150;SDS011;28755;51.478;5.702;2023-03-23T07:52:37;9.73;;;2.00;;
43150;SDS011;28755;51.478;5.702;2023-03-23T07:55:03;7.63;;;2.20;;
43150;SDS011;28755;51.478;5.702;2023-03-23T07:57:30;11.85;;;2.65;;
43150;SDS011;28755;51.478;5.702;2023-03-23T07:59:57;10.82;;;2.85;;
43150;SDS011;28755;51.478;5.702;2023-03-23T08:02:23;8.23;;;2.00;;
43150;SDS011;28755;51.478;5.702;2023-03-23T08:04:49;7.88;;;1.92;;
43150;SDS011;28755;51.478;5.702;2023-03-23T08:07:16;7.03;;;1.23;;
43150;SDS011;28755;51.478;5.702;2023-03-23T08:09:44;3.60;;;1.15;;
43150;SDS011;28755;51.478;5.702;2023-03-23T08:12:10;4.28;;;1.05;;
43150;SDS011;28755;51.478;5.702;2023-03-23T08:14:36;2.38;;;0.90;;
43150;SDS011;28755;51.478;5.702;2023-03-23T08:17:01;6.38;;;1.13;;
43150;SDS011;28755;51.478;5.702;2023-03-23T08:19:27;3.38;;;1.23;;
43150;SDS011;28755;51.478;5.702;2023-03-23T08:21:52;2.97;;;1.00;;
43150;SDS011;28755;51.478;5.702;2023-03-23T08:24:18;5.25;;;1.20;;
43150;SDS011;28755;51.478;5.702;2023-03-23T08:26:44;7.13;;;1.20;;
43150;SDS011;28755;51.478;5.702;2023-03-23T08:29:10;6.57;;;1.27;;
43150;SDS011;28755;51.478;5.702;2023-03-23T08:31:35;5.93;;;1.42;;
43150;SDS011;28755;51.478;5.702;2023-03-23T08:34:02;3.55;;;1.17;;
43150;SDS011;28755;51.478;5.702;2023-03-23T08:36:33;4.20;;;1.10;;
43150;SDS011;28755;51.478;5.702;2023-03-23T08:38:59;4.75;;;1.08;;
43150;SDS011;28755;51.478;5.702;2023-03-23T08:41:24;6.85;;;1.73;;
43150;SDS011;28755;51.478;5.702;2023-03-23T08:43:50;3.47;;;1.40;;
43150;SDS011;28755;51.478;5.702;2023-03-23T08:46:17;4.95;;;1.10;;
43150;SDS011;28755;51.478;5.702;2023-03-23T08:48:44;6.65;;;1.40;;
43150;SDS011;28755;51.478;5.702;2023-03-23T08:51:10;6.38;;;1.20;;
43150;SDS011;28755;51.478;5.702;2023-03-23T08:53:37;3.78;;;0.70;;
43150;SDS011;28755;51.478;5.702;2023-03-23T08:56:03;2.95;;;1.10;;
43150;SDS011;28755;51.478;5.702;2023-03-23T08:58:30;5.20;;;1.10;;
43150;SDS011;28755;51.478;5.702;2023-03-23T09:00:56;3.17;;;1.35;;
43150;SDS011;28755;51.478;5.702;2023-03-23T09:03:22;4.10;;;1.23;;
43150;SDS011;28755;51.478;5.702;2023-03-23T09:05:48;8.48;;;1.83;;
43150;SDS011;28755;51.478;5.702;2023-03-23T09:08:13;4.20;;;1.02;;
43150;SDS011;28755;51.478;5.702;2023-03-23T09:10:39;6.25;;;1.35;;
43150;SDS011;28755;51.478;5.702;2023-03-23T09:13:05;4.65;;;1.42;;
43150;SDS011;28755;51.478;5.702;2023-03-23T09:15:31;5.18;;;0.95;;
43150;SDS011;28755;51.478;5.702;2023-03-23T09:17:57;5.03;;;1.42;;
43150;SDS011;28755;51.478;5.702;2023-03-23T09:20:24;4.93;;;1.10;;
43150;SDS011;28755;51.478;5.702;2023-03-23T09:22:52;4.07;;;1.00;;
43150;SDS011;28755;51.478;5.702;2023-03-23T09:25:20;5.57;;;1.10;;
43150;SDS011;28755;51.478;5.702;2023-03-23T09:27:51;5.40;;;1.00;;
43150;SDS011;28755;51.478;5.702;2023-03-23T09:30:21;4.45;;;0.95;;
43150;SDS011;28755;51.478;5.702;2023-03-23T09:32:51;5.97;;;1.20;;
43150;SDS011;28755;51.478;5.702;2023-03-23T09:35:18;3.90;;;0.95;;
43150;SDS011;28755;51.478;5.702;2023-03-23T09:37:46;7.53;;;1.27;;
43150;SDS011;28755;51.478;5.702;2023-03-23T09:40:14;3.83;;;1.20;;
43150;SDS011;28755;51.478;5.702;2023-03-23T09:45:47;7.10;;;1.07;;
43150;SDS011;28755;51.478;5.702;2023-03-23T09:48:38;5.70;;;1.30;;
43150;SDS011;28755;51.478;5.702;2023-03-23T09:53:49;4.70;;;1.70;;
43150;SDS011;28755;51.478;5.702;2023-03-23T09:56:20;4.85;;;1.27;;
43150;SDS011;28755;51.478;5.702;2023-03-23T10:01:20;3.35;;;1.40;;
43150;SDS011;28755;51.478;5.702;2023-03-23T10:03:51;5.05;;;1.40;;
43150;SDS011;28755;51.478;5.702;2023-03-23T10:06:22;4.53;;;1.40;;
43150;SDS011;28755;51.478;5.702;2023-03-23T10:08:56;4.13;;;1.38;;
43150;SDS011;28755;51.478;5.702;2023-03-23T10:17:13;6.32;;;1.63;;
43150;SDS011;28755;51.478;5.702;2023-03-23T10:22:10;7.28;;;1.98;;
43150;SDS011;28755;51.478;5.702;2023-03-23T10:24:50;5.32;;;1.90;;
43150;SDS011;28755;51.478;5.702;2023-03-23T10:27:26;6.90;;;2.00;;
43150;SDS011;28755;51.478;5.702;2023-03-23T10:30:03;6.97;;;2.00;;
43150;SDS011;28755;51.478;5.702;2023-03-23T10:35:24;4.30;;;1.45;;
43150;SDS011;28755;51.478;5.702;2023-03-23T10:38:14;8.75;;;2.28;;
43150;SDS011;28755;51.478;5.702;2023-03-23T10:40:45;6.40;;;1.80;;
43150;SDS011;28755;51.478;5.702;2023-03-23T10:43:14;7.07;;;2.40;;
43150;SDS011;28755;51.478;5.702;2023-03-23T10:45:40;7.28;;;1.40;;
43150;SDS011;28755;51.478;5.702;2023-03-23T10:48:16;7.32;;;1.80;;
43150;SDS011;28755;51.478;5.702;2023-03-23T10:50:51;6.07;;;1.90;;
43150;SDS011;28755;51.478;5.702;2023-03-23T10:55:48;4.80;;;1.20;;
43150;SDS011;28755;51.478;5.702;2023-03-23T10:58:25;4.82;;;1.15;;
43150;SDS011;28755;51.478;5.702;2023-03-23T11:00:59;11.02;;;1.55;;
43150;SDS011;28755;51.478;5.702;2023-03-23T11:03:41;6.47;;;1.88;;
43150;SDS011;28755;51.478;5.702;2023-03-23T11:06:10;6.57;;;1.63;;
43150;SDS011;28755;51.478;5.702;2023-03-23T11:11:24;8.73;;;1.50;;
43150;SDS011;28755;51.478;5.702;2023-03-23T11:14:03;5.30;;;1.35;;
43150;SDS011;28755;51.478;5.702;2023-03-23T11:16:45;3.53;;;1.15;;
43150;SDS011;28755;51.478;5.702;2023-03-23T11:19:21;5.57;;;1.15;;
43150;SDS011;28755;51.478;5.702;2023-03-23T11:21:53;4.28;;;1.45;;
43150;SDS011;28755;51.478;5.702;2023-03-23T11:24:35;4.63;;;1.38;;
43150;SDS011;28755;51.478;5.702;2023-03-23T11:27:05;5.43;;;1.20;;
43150;SDS011;28755;51.478;5.702;2023-03-23T11:29:33;4.13;;;1.30;;
43150;SDS011;28755;51.478;5.702;2023-03-23T11:32:03;4.43;;;1.00;;
43150;SDS011;28755;51.478;5.702;2023-03-23T11:37:04;5.00;;;1.33;;
43150;SDS011;28755;51.478;5.702;2023-03-23T11:39:34;5.35;;;1.10;;
43150;SDS011;28755;51.478;5.702;2023-03-23T11:42:22;3.65;;;1.25;;
43150;SDS011;28755;51.478;5.702;2023-03-23T11:44:53;3.25;;;1.10;;
43150;SDS011;28755;51.478;5.702;2023-03-23T11:47:24;3.42;;;1.10;;
43150;SDS011;28755;51.478;5.702;2023-03-23T11:50:00;3.60;;;1.23;;
43150;SDS011;28755;51.478;5.702;2023-03-23T11:52:44;4.13;;;0.90;;
43150;SDS011;28755;51.478;5.702;2023-03-23T11:57:50;5.32;;;1.40;;
43150;SDS011;28755;51.478;5.702;2023-03-23T12:00:17;4.50;;;1.48;;
43150;SDS011;28755;51.478;5.702;2023-03-23T12:03:05;3.65;;;1.25;;
43150;SDS011;28755;51.478;5.702;2023-03-23T12:05:51;4.72;;;1.35;;
43150;SDS011;28755;51.478;5.702;2023-03-23T12:17:10;4.22;;;1.25;;
43150;SDS011;28755;51.478;5.702;2023-03-23T12:20:04;3.90;;;1.25;;
43150;SDS011;28755;51.478;5.702;2023-03-23T12:22:54;5.07;;;1.45;;
43150;SDS011;28755;51.478;5.702;2023-03-23T12:31:15;7.03;;;1.55;;
43150;SDS011;28755;51.478;5.702;2023-03-23T12:34:06;4.80;;;1.30;;
43150;SDS011;28755;51.478;5.702;2023-03-23T12:45:37;4.55;;;1.40;;
43150;SDS011;28755;51.478;5.702;2023-03-23T12:48:24;6.55;;;1.92;;
43150;SDS011;28755;51.478;5.702;2023-03-23T12:51:02;6.15;;;1.67;;
43150;SDS011;28755;51.478;5.702;2023-03-23T12:53:41;4.00;;;1.70;;
43150;SDS011;28755;51.478;5.702;2023-03-23T12:59:36;4.72;;;1.50;;
43150;SDS011;28755;51.478;5.702;2023-03-23T13:02:27;3.55;;;1.63;;
43150;SDS011;28755;51.478;5.702;2023-03-23T13:05:03;5.72;;;1.75;;
43150;SDS011;28755;51.478;5.702;2023-03-23T13:07:41;4.82;;;1.80;;
43150;SDS011;28755;51.478;5.702;2023-03-23T13:12:47;4.57;;;1.52;;
43150;SDS011;28755;51.478;5.702;2023-03-23T13:20:40;6.47;;;1.80;;
43150;SDS011;28755;51.478;5.702;2023-03-23T13:23:18;6.40;;;1.92;;
43150;SDS011;28755;51.478;5.702;2023-03-23T13:26:05;14.30;;;2.60;;
43150;SDS011;28755;51.478;5.702;2023-03-23T13:28:43;6.72;;;1.83;;
43150;SDS011;28755;51.478;5.702;2023-03-23T13:31:14;7.32;;;2.00;;
43150;SDS011;28755;51.478;5.702;2023-03-23T13:33:46;8.25;;;2.08;;
43150;SDS011;28755;51.478;5.702;2023-03-23T13:36:15;8.23;;;2.47;;
43150;SDS011;28755;51.478;5.702;2023-03-23T13:38:47;10.00;;;2.30;;
43150;SDS011;28755;51.478;5.702;2023-03-23T13:41:15;9.70;;;2.22;;
43150;SDS011;28755;51.478;5.702;2023-03-23T13:43:45;4.60;;;1.80;;
43150;SDS011;28755;51.478;5.702;2023-03-23T13:48:43;8.73;;;2.00;;
43150;SDS011;28755;51.478;5.702;2023-03-23T13:56:41;8.40;;;3.03;;
43150;SDS011;28755;51.478;5.702;2023-03-23T13:59:15;8.88;;;2.70;;
43150;SDS011;28755;51.478;5.702;2023-03-23T14:05:24;8.95;;;3.30;;
43150;SDS011;28755;51.478;5.702;2023-03-23T14:13:20;10.60;;;4.00;;
43150;SDS011;28755;51.478;5.702;2023-03-23T14:15:56;11.70;;;3.33;;
43150;SDS011;28755;51.478;5.702;2023-03-23T14:18:29;12.00;;;3.65;;
43150;SDS011;28755;51.478;5.702;2023-03-23T14:21:02;9.25;;;2.90;;
43150;SDS011;28755;51.478;5.702;2023-03-23T14:23:30;14.93;;;3.33;;
43150;SDS011;28755;51.478;5.702;2023-03-23T14:26:01;12.68;;;3.10;;
43150;SDS011;28755;51.478;5.702;2023-03-23T14:28:35;13.25;;;3.05;;
43150;SDS011;28755;51.478;5.702;2023-03-23T14:31:08;11.85;;;3.00;;
43150;SDS011;28755;51.478;5.702;2023-03-23T14:33:48;12.45;;;3.15;;
43150;SDS011;28755;51.478;5.702;2023-03-23T14:36:19;11.63;;;2.72;;
43150;SDS011;28755;51.478;5.702;2023-03-23T14:39:05;11.77;;;2.63;;
43150;SDS011;28755;51.478;5.702;2023-03-23T14:41:40;11.13;;;2.83;;
43150;SDS011;28755;51.478;5.702;2023-03-23T14:44:07;11.18;;;2.80;;
43150;SDS011;28755;51.478;5.702;2023-03-23T14:46:37;9.52;;;2.28;;
43150;SDS011;28755;51.478;5.702;2023-03-23T14:49:04;9.90;;;2.53;;
43150;SDS011;28755;51.478;5.702;2023-03-23T14:51:31;11.23;;;2.65;;
43150;SDS011;28755;51.478;5.702;2023-03-23T14:53:58;9.77;;;2.65;;
43150;SDS011;28755;51.478;5.702;2023-03-23T14:56:31;11.55;;;3.05;;
43150;SDS011;28755;51.478;5.702;2023-03-23T14:59:05;9.30;;;3.00;;
43150;SDS011;28755;51.478;5.702;2023-03-23T15:01:34;9.43;;;2.75;;
43150;SDS011;28755;51.478;5.702;2023-03-23T15:06:55;13.35;;;2.63;;
43150;SDS011;28755;51.478;5.702;2023-03-23T15:09:26;13.00;;;3.35;;
43150;SDS011;28755;51.478;5.702;2023-03-23T15:11:56;11.95;;;2.83;;
43150;SDS011;28755;51.478;5.702;2023-03-23T15:14:29;8.13;;;2.90;;
43150;SDS011;28755;51.478;5.702;2023-03-23T15:17:09;13.60;;;3.03;;
43150;SDS011;28755;51.478;5.702;2023-03-23T15:19:44;10.23;;;2.90;;
43150;SDS011;28755;51.478;5.702;2023-03-23T15:22:24;8.02;;;2.63;;
43150;SDS011;28755;51.478;5.702;2023-03-23T15:24:53;9.40;;;2.33;;
43150;SDS011;28755;51.478;5.702;2023-03-23T15:27:28;7.22;;;2.90;;
43150;SDS011;28755;51.478;5.702;2023-03-23T15:29:57;7.90;;;2.20;;
43150;SDS011;28755;51.478;5.702;2023-03-23T15:32:29;10.18;;;2.40;;
43150;SDS011;28755;51.478;5.702;2023-03-23T15:35:03;9.73;;;2.55;;
43150;SDS011;28755;51.478;5.702;2023-03-23T15:37:35;13.23;;;2.97;;
43150;SDS011;28755;51.478;5.702;2023-03-23T15:40:13;8.82;;;2.53;;
43150;SDS011;28755;51.478;5.702;2023-03-23T15:42:40;8.52;;;2.75;;
43150;SDS011;28755;51.478;5.702;2023-03-23T15:50:19;9.65;;;2.80;;
43150;SDS011;28755;51.478;5.702;2023-03-23T15:52:57;11.27;;;3.10;;
43150;SDS011;28755;51.478;5.702;2023-03-23T15:57:50;9.63;;;3.00;;
43150;SDS011;28755;51.478;5.702;2023-03-23T16:00:17;11.90;;;3.38;;
43150;SDS011;28755;51.478;5.702;2023-03-23T16:02:48;9.32;;;2.80;;
43150;SDS011;28755;51.478;5.702;2023-03-23T16:05:18;12.65;;;3.42;;
43150;SDS011;28755;51.478;5.702;2023-03-23T16:07:44;9.68;;;2.58;;
43150;SDS011;28755;51.478;5.702;2023-03-23T16:10:14;11.73;;;3.50;;
43150;SDS011;28755;51.478;5.702;2023-03-23T16:12:44;7.65;;;2.38;;
43150;SDS011;28755;51.478;5.702;2023-03-23T16:15:10;14.23;;;3.30;;
43150;SDS011;28755;51.478;5.702;2023-03-23T16:17:36;15.23;;;3.00;;
43150;SDS011;28755;51.478;5.702;2023-03-23T16:20:08;10.77;;;2.45;;
43150;SDS011;28755;51.478;5.702;2023-03-23T16:22:44;14.52;;;3.15;;
43150;SDS011;28755;51.478;5.702;2023-03-23T16:25:10;8.57;;;2.85;;
43150;SDS011;28755;51.478;5.702;2023-03-23T16:27:37;9.20;;;2.78;;
43150;SDS011;28755;51.478;5.702;2023-03-23T16:30:17;10.30;;;2.85;;
43150;SDS011;28755;51.478;5.702;2023-03-23T16:32:43;11.60;;;3.42;;
43150;SDS011;28755;51.478;5.702;2023-03-23T16:35:09;12.13;;;3.47;;
43150;SDS011;28755;51.478;5.702;2023-03-23T16:37:35;14.05;;;3.55;;
43150;SDS011;28755;51.478;5.702;2023-03-23T16:40:03;11.68;;;3.10;;
43150;SDS011;28755;51.478;5.702;2023-03-23T16:42:31;10.45;;;3.10;;
43150;SDS011;28755;51.478;5.702;2023-03-23T16:44:56;11.30;;;3.03;;
43150;SDS011;28755;51.478;5.702;2023-03-23T16:47:22;7.78;;;2.88;;
43150;SDS011;28755;51.478;5.702;2023-03-23T16:49:49;9.60;;;2.78;;
43150;SDS011;28755;51.478;5.702;2023-03-23T16:52:15;10.35;;;2.53;;
43150;SDS011;28755;51.478;5.702;2023-03-23T16:54:41;11.02;;;2.97;;
43150;SDS011;28755;51.478;5.702;2023-03-23T16:57:07;12.35;;;3.03;;
43150;SDS011;28755;51.478;5.702;2023-03-23T16:59:32;10.70;;;2.90;;
43150;SDS011;28755;51.478;5.702;2023-03-23T17:01:58;7.78;;;2.72;;
43150;SDS011;28755;51.478;5.702;2023-03-23T17:04:27;18.38;;;3.45;;